Terminal Aerodrome Forecast
Issued by NWS

Home | Current Version | Previous Version | Text Only | Print | Product List | Glossary On
Versions: 1 2 3 4 5 6 7 8 9 10 11 12 13 14 15 16 17 18 19 20 21 22 23
000
FTUS41 KGYX 241912 AAA
TAFHIE
TAF AMD
KHIE 241912Z 2419/2518 VRB03KT 2SM -SN BKN025 OVC040
      TEMPO 2419/2423 1/4SM +SN BKN008 OVC012
     FM242300 21005KT 1 1/2SM -SN OVC012
     FM250700 VRB03KT P6SM BKN025 OVC040
     FM251400 35004KT P6SM BKN040 OVC060=

USA.gov is the U.S. government's official web portal to all federal, state and local government web resources and services.